createdAt,value
2023-01-11T00:00:34.277Z,98744.22
2023-01-11T00:03:04.510Z,98746.84
2023-01-11T00:05:31.280Z,98745.09
2023-01-11T00:07:58.693Z,98748.53
2023-01-11T00:10:25.238Z,98745.97
2023-01-11T00:12:51.940Z,98754.50
2023-01-11T00:15:18.519Z,98757.03
2023-01-11T00:17:45.156Z,98755.31
2023-01-11T00:20:11.923Z,98762.09
2023-01-11T00:22:38.463Z,98756.97
2023-01-11T00:25:05.380Z,98748.50
2023-01-11T00:27:32.217Z,98753.63
2023-01-11T00:29:58.690Z,98751.03
2023-01-11T00:32:27.259Z,98747.66
2023-01-11T00:34:54.648Z,98748.47
2023-01-11T00:37:21.432Z,98745.03
2023-01-11T00:39:48.015Z,98745.06
2023-01-11T00:42:32.955Z,98757.06
2023-01-11T00:45:17.902Z,98756.22
2023-01-11T00:48:04.843Z,98757.94
2023-01-11T00:50:36.384Z,98762.22
2023-01-11T00:53:04.257Z,98756.25
2023-01-11T00:55:34.082Z,98759.66
2023-01-11T00:58:01.436Z,98764.78
2023-01-11T01:00:29.383Z,98768.28
2023-01-11T01:02:56.061Z,98762.22
2023-01-11T01:05:22.653Z,98768.25
2023-01-11T01:07:49.232Z,98766.53
2023-01-11T01:10:17.359Z,98763.09
2023-01-11T01:13:02.434Z,98767.41
2023-01-11T01:15:29.319Z,98762.28
2023-01-11T01:17:56.094Z,98752.03
2023-01-11T01:20:24.045Z,98752.91
2023-01-11T01:22:51.153Z,98758.13
2023-01-11T01:25:17.916Z,98763.31
2023-01-11T01:27:44.588Z,98751.34
2023-01-11T01:30:11.721Z,98757.34
2023-01-11T01:32:38.267Z,98748.81
2023-01-11T01:35:05.068Z,98751.34
2023-01-11T01:37:31.582Z,98753.91
2023-01-11T01:39:58.124Z,98750.53
2023-01-11T01:42:25.264Z,98746.31
2023-01-11T01:45:00.960Z,98750.53
2023-01-11T01:47:37.756Z,98756.53
2023-01-11T01:50:16.079Z,98751.41
2023-01-11T01:52:46.037Z,98756.50
2023-01-11T01:55:17.553Z,98753.91
2023-01-11T01:57:45.376Z,98751.38
2023-01-11T02:00:12.748Z,98742.88
2023-01-11T02:02:41.139Z,98752.28
2023-01-11T02:05:09.835Z,98749.72
2023-01-11T02:07:40.005Z,98746.31
2023-01-11T02:10:11.952Z,98750.56
2023-01-11T02:12:43.093Z,98747.16
2023-01-11T02:15:11.980Z,98740.38
2023-01-11T02:17:38.501Z,98745.53
2023-01-11T02:20:34.236Z,98753.22
2023-01-11T02:23:20.181Z,98752.41
2023-01-11T02:26:07.978Z,98758.38
2023-01-11T02:28:52.531Z,98759.25
2023-01-11T02:31:38.640Z,98764.38
2023-01-11T02:34:19.601Z,98754.97
2023-01-11T02:37:00.928Z,98766.09
2023-01-11T02:39:34.469Z,98761.78
2023-01-11T02:42:27.649Z,98763.53
2023-01-11T02:45:29.988Z,98761.88
2023-01-11T02:47:56.398Z,98750.78
2023-01-11T02:50:30.740Z,98760.19
2023-01-11T02:53:15.687Z,98761.88
2023-01-11T02:55:48.549Z,98754.16
2023-01-11T02:58:18.120Z,98762.72
2023-01-11T03:00:46.617Z,98762.72
2023-01-11T03:03:13.717Z,98767.84
2023-01-11T03:05:52.347Z,98764.41
2023-01-11T03:08:24.549Z,98769.56
2023-01-11T03:11:11.717Z,98761.84
2023-01-11T03:14:00.364Z,98769.56
2023-01-11T03:17:14.700Z,98764.44
2023-01-11T03:19:50.852Z,98767.81
2023-01-11T03:22:46.194Z,98760.97
2023-01-11T03:25:24.683Z,98755.81
2023-01-11T03:28:06.470Z,98754.09
2023-01-11T03:30:48.637Z,98761.81
2023-01-11T03:33:22.724Z,98760.06
2023-01-11T03:36:14.406Z,98754.03
2023-01-11T03:38:59.728Z,98748.88
2023-01-11T03:41:28.375Z,98742.03
2023-01-11T03:43:57.251Z,98738.63
2023-01-11T03:46:29.055Z,98736.94
2023-01-11T03:49:00.910Z,98734.38
2023-01-11T03:51:31.926Z,98740.34
2023-01-11T03:54:03.492Z,98735.19
2023-01-11T03:56:38.446Z,98736.88
2023-01-11T03:59:04.948Z,98734.31
2023-01-11T04:01:31.823Z,98735.13
2023-01-11T04:03:58.357Z,98736.00
2023-01-11T04:06:25.781Z,98736.88
2023-01-11T04:08:52.338Z,98738.63
2023-01-11T04:11:19.008Z,98734.34
2023-01-11T04:13:45.600Z,98736.03
2023-01-11T04:16:12.192Z,98729.19
2023-01-11T04:18:39.157Z,98736.00
2023-01-11T04:21:05.994Z,98727.47
2023-01-11T04:23:32.509Z,98722.34
2023-01-11T04:25:59.032Z,98722.34
2023-01-11T04:28:25.516Z,98725.78
2023-01-11T04:30:52.180Z,98716.38
2023-01-11T04:33:19.605Z,98711.28
2023-01-11T04:35:46.172Z,98707.84
2023-01-11T04:38:12.702Z,98707.03
2023-01-11T04:40:39.187Z,98702.78
2023-01-11T04:43:05.741Z,98703.66
2023-01-11T04:45:32.822Z,98706.22
2023-01-11T04:47:59.417Z,98708.00
2023-01-11T04:50:27.419Z,98705.44
2023-01-11T04:52:53.959Z,98710.59
2023-01-11T04:55:20.749Z,98710.59
2023-01-11T04:57:47.507Z,98704.72
2023-01-11T05:00:16.280Z,98709.84
2023-01-11T05:02:42.998Z,98707.31
2023-01-11T05:05:10.355Z,98700.53
2023-01-11T05:07:38.877Z,98705.66
2023-01-11T05:10:06.120Z,98697.94
2023-01-11T05:12:32.641Z,98705.63
2023-01-11T05:14:59.277Z,98699.63
2023-01-11T05:17:25.794Z,98704.75
2023-01-11T05:19:52.319Z,98703.94
2023-01-11T05:22:18.817Z,98697.94
2023-01-11T05:24:45.342Z,98697.09
2023-01-11T05:27:12.003Z,98702.22
2023-01-11T05:29:38.655Z,98705.63
2023-01-11T05:32:05.523Z,98703.97
2023-01-11T05:34:32.132Z,98708.22
2023-01-11T05:36:58.678Z,98709.09
2023-01-11T05:39:25.274Z,98714.22
2023-01-11T05:41:51.769Z,98708.25
2023-01-11T05:44:36.918Z,98715.94
2023-01-11T05:47:04.471Z,98713.38
2023-01-11T05:49:31.033Z,98709.13
2023-01-11T05:51:57.637Z,98719.34
2023-01-11T05:54:24.255Z,98720.22
2023-01-11T05:56:50.838Z,98715.09
2023-01-11T05:59:17.713Z,98712.53
2023-01-11T06:01:44.370Z,98716.81
2023-01-11T06:04:11.108Z,98713.41
2023-01-11T06:06:37.813Z,98718.53
2023-01-11T06:09:04.790Z,98712.53
2023-01-11T06:11:31.707Z,98720.22
2023-01-11T06:13:58.261Z,98715.97
2023-01-11T06:16:24.933Z,98721.09
2023-01-11T06:18:53.115Z,98724.47
2023-01-11T06:21:20.579Z,98727.03
2023-01-11T06:23:52.957Z,98715.94
2023-01-11T06:26:21.912Z,98714.25
2023-01-11T06:28:49.175Z,98721.91
2023-01-11T06:31:17.936Z,98719.38
2023-01-11T06:33:45.228Z,98726.19
2023-01-11T06:36:13.752Z,98723.63
2023-01-11T06:38:40.344Z,98732.16
2023-01-11T06:41:08.704Z,98724.47
2023-01-11T06:43:36.400Z,98725.31
2023-01-11T06:46:03.059Z,98720.22
2023-01-11T06:48:29.664Z,98722.78
2023-01-11T06:50:58.165Z,98720.22
2023-01-11T06:53:28.624Z,98712.53
2023-01-11T06:55:57.767Z,98709.97
2023-01-11T06:58:25.510Z,98714.25
2023-01-11T07:00:53.926Z,98713.38
2023-01-11T07:03:21.163Z,98709.13
2023-01-11T07:05:47.882Z,98719.38
2023-01-11T07:08:14.524Z,98708.28
2023-01-11T07:10:42.237Z,98708.28
2023-01-11T07:13:09.882Z,98699.75
2023-01-11T07:15:36.727Z,98696.34
2023-01-11T07:18:03.843Z,98692.09
2023-01-11T07:20:30.509Z,98682.69
2023-01-11T07:22:59.451Z,98681.84
2023-01-11T07:25:30.403Z,98678.41
2023-01-11T07:27:58.901Z,98685.25
2023-01-11T07:30:26.826Z,98686.09
2023-01-11T07:32:53.342Z,98684.41
2023-01-11T07:35:20.229Z,98690.34
2023-01-11T07:37:46.780Z,98701.44
2023-01-11T07:40:13.936Z,98706.59
2023-01-11T07:42:58.969Z,98702.31
2023-01-11T07:45:34.324Z,98709.13
2023-01-11T07:48:10.766Z,98703.16
2023-01-11T07:50:39.510Z,98709.13
2023-01-11T07:53:07.621Z,98709.13
2023-01-11T07:55:34.575Z,98712.53
2023-01-11T07:58:01.171Z,98715.94
2023-01-11T08:00:27.706Z,98712.53
2023-01-11T08:02:54.429Z,98715.13
2023-01-11T08:05:22.018Z,98721.06
2023-01-11T08:07:48.827Z,98722.78
2023-01-11T08:10:15.840Z,98727.03
2023-01-11T08:13:02.947Z,98727.88
2023-01-11T08:15:30.304Z,98731.31
2023-01-11T08:17:56.929Z,98738.16
2023-01-11T08:20:23.863Z,98745.81
2023-01-11T08:22:50.463Z,98738.97
2023-01-11T08:25:17.145Z,98740.69
2023-01-11T08:27:44.134Z,98748.38
2023-01-11T08:30:11.740Z,98753.50
2023-01-11T08:32:38.423Z,98762.00
2023-01-11T08:35:05.700Z,98772.25
2023-01-11T08:37:32.360Z,98765.44
2023-01-11T08:39:58.860Z,98772.25
2023-01-11T08:42:26.384Z,98768.84
2023-01-11T08:44:53.942Z,98770.56
2023-01-11T08:47:20.520Z,98764.56
2023-01-11T08:49:47.275Z,98763.75
2023-01-11T08:52:14.502Z,98762.88
2023-01-11T08:54:42.036Z,98753.50
2023-01-11T08:57:08.678Z,98757.75
2023-01-11T08:59:37.265Z,98758.59
2023-01-11T09:02:05.464Z,98761.16
2023-01-11T09:04:34.451Z,98750.91
2023-01-11T09:07:02.175Z,98750.03
2023-01-11T09:09:28.782Z,98747.47
2023-01-11T09:11:56.717Z,98749.19
2023-01-11T09:14:25.555Z,98752.59
2023-01-11T09:16:53.111Z,98744.91
2023-01-11T09:19:20.796Z,98743.19
2023-01-11T09:21:47.618Z,98744.88
2023-01-11T09:24:14.923Z,98744.88
2023-01-11T09:26:43.425Z,98744.00
2023-01-11T09:29:11.636Z,98732.84
2023-01-11T09:31:38.619Z,98728.56
2023-01-11T09:34:07.057Z,98729.38
2023-01-11T09:36:36.071Z,98719.97
2023-01-11T09:39:07.691Z,98712.28
2023-01-11T09:41:47.276Z,98708.00
2023-01-11T09:44:19.284Z,98713.94
2023-01-11T09:46:50.352Z,98711.34
2023-01-11T09:49:57.977Z,98708.75
2023-01-11T09:53:15.233Z,98712.13
2023-01-11T09:55:47.067Z,98714.59
2023-01-11T09:58:46.674Z,98712.00
2023-01-11T10:01:54.511Z,98708.56
2023-01-11T10:04:50.200Z,98710.19
2023-01-11T10:07:17.224Z,98699.00
2023-01-11T10:18:41.379Z,98700.63
2023-01-11T10:19:40.226Z,98690.31
2023-01-11T10:22:33.671Z,98685.97
2023-01-11T10:25:18.808Z,98683.38
2023-01-11T10:27:59.365Z,98679.94
2023-01-11T10:30:43.820Z,98671.34
2023-01-11T10:33:49.721Z,98671.34
2023-01-11T10:36:34.921Z,98664.38
2023-01-11T10:39:35.892Z,98675.53
2023-01-11T10:42:13.327Z,98677.22
2023-01-11T10:44:43.832Z,98678.06
2023-01-11T10:47:17.945Z,98669.38
2023-01-11T10:49:56.032Z,98665.06
2023-01-11T10:52:35.449Z,98654.03
2023-01-11T10:55:13.139Z,98654.81
2023-01-11T10:58:02.313Z,98653.06
2023-01-11T11:00:51.623Z,98657.31
2023-01-11T11:03:39.009Z,98664.03
2023-01-11T11:06:05.519Z,98661.41
2023-01-11T11:08:56.149Z,98667.34
2023-01-11T11:11:27.999Z,98658.03
2023-01-11T11:14:12.753Z,98654.50
2023-01-11T11:16:56.259Z,98646.72
2023-01-11T11:19:26.726Z,98656.03
2023-01-11T11:21:53.852Z,98650.94
2023-01-11T11:24:32.549Z,98644.88
2023-01-11T11:27:22.425Z,98635.41
2023-01-11T11:29:54.966Z,98629.41
2023-01-11T11:32:27.115Z,98632.78
2023-01-11T11:34:53.928Z,98623.31
2023-01-11T11:37:35.525Z,98619.81
2023-01-11T11:40:03.496Z,98620.72
2023-01-11T11:42:30.341Z,98612.09
2023-01-11T11:45:09.033Z,98623.09
2023-01-11T11:47:36.841Z,98613.63
2023-01-11T11:50:43.713Z,98616.09
2023-01-11T11:53:22.675Z,98621.97
2023-01-11T11:55:51.295Z,98611.91
2023-01-11T11:58:22.072Z,98611.84
2023-01-11T12:00:51.371Z,98621.19
2023-01-11T12:03:23.435Z,98617.75
2023-01-11T12:06:03.028Z,98612.59
2023-01-11T12:08:36.223Z,98611.59
2023-01-11T12:11:08.115Z,98604.63
2023-01-11T12:13:38.658Z,98597.69
2023-01-11T12:16:18.203Z,98597.53
2023-01-11T12:18:44.858Z,98594.06
2023-01-11T12:21:26.517Z,98591.47
2023-01-11T12:24:18.461Z,98588.06
2023-01-11T12:26:57.216Z,98580.97
2023-01-11T12:29:48.444Z,98578.38
2023-01-11T12:32:46.151Z,98578.28
2023-01-11T12:35:22.261Z,98579.09
2023-01-11T12:38:00.709Z,98575.75
2023-01-11T12:40:41.159Z,98582.50
2023-01-11T12:43:27.634Z,98581.63
2023-01-11T12:46:23.942Z,98582.59
2023-01-11T12:49:28.534Z,98589.44
2023-01-11T12:52:10.232Z,98578.31
2023-01-11T12:54:57.257Z,98567.19
2023-01-11T12:58:00.603Z,98564.59
2023-01-11T13:00:53.459Z,98564.66
2023-01-11T13:03:38.833Z,98573.16
2023-01-11T13:06:05.272Z,98568.03
2023-01-11T13:08:49.282Z,98574.81
2023-01-11T13:11:45.897Z,98573.06
2023-01-11T13:14:56.673Z,98573.00
2023-01-11T13:17:33.663Z,98564.41
2023-01-11T13:20:28.202Z,98574.47
2023-01-11T13:23:02.026Z,98571.06
2023-01-11T13:25:32.959Z,98566.88
2023-01-11T13:28:06.804Z,98568.56
2023-01-11T13:30:37.370Z,98566.88
2023-01-11T13:33:14.900Z,98567.75
2023-01-11T13:35:50.192Z,98566.06
2023-01-11T13:39:03.431Z,98565.19
2023-01-11T13:41:48.642Z,98551.50
2023-01-11T13:44:37.435Z,98550.63
2023-01-11T13:47:19.314Z,98557.56
2023-01-11T13:49:59.397Z,98555.88
2023-01-11T13:52:42.272Z,98555.03
2023-01-11T13:55:35.928Z,98555.97
2023-01-11T13:58:29.253Z,98559.31
2023-01-11T14:01:02.609Z,98554.16
2023-01-11T14:03:51.260Z,98548.16
2023-01-11T14:06:51.569Z,98548.19
2023-01-11T14:09:36.123Z,98553.34
2023-01-11T14:12:20.372Z,98548.91
2023-01-11T14:14:59.261Z,98544.59
2023-01-11T14:17:59.929Z,98533.34
2023-01-11T14:21:13.223Z,98535.88
2023-01-11T14:23:55.336Z,98539.38
2023-01-11T14:26:54.583Z,98539.34
2023-01-11T14:29:59.386Z,98538.50
2023-01-11T14:32:53.869Z,98536.00
2023-01-11T14:35:38.437Z,98533.53
2023-01-11T14:38:34.863Z,98537.03
2023-01-11T14:41:29.333Z,98537.13
2023-01-11T14:44:14.323Z,98528.63
2023-01-11T14:46:58.259Z,98529.66
2023-01-11T14:49:54.584Z,98522.84
2023-01-11T14:52:38.488Z,98525.53
2023-01-11T14:55:31.974Z,98521.28
2023-01-11T14:58:24.426Z,98525.63
2023-01-11T15:01:04.993Z,98516.22
2023-01-11T15:03:38.961Z,98517.94
2023-01-11T15:06:20.798Z,98518.78
2023-01-11T15:08:50.355Z,98512.78
2023-01-11T15:11:33.324Z,98513.75
2023-01-11T15:14:26.305Z,98508.75
2023-01-11T15:17:15.575Z,98518.94
2023-01-11T15:19:44.287Z,98517.38
2023-01-11T15:22:28.999Z,98520.09
2023-01-11T15:25:05.752Z,98523.63
2023-01-11T15:27:37.926Z,98526.28
2023-01-11T15:30:08.120Z,98518.72
2023-01-11T15:32:36.239Z,98521.34
2023-01-11T15:35:25.102Z,98513.72
2023-01-11T15:38:11.796Z,98517.25
2023-01-11T15:40:44.683Z,98504.53
2023-01-11T15:44:04.031Z,98508.78
2023-01-11T15:47:05.761Z,98514.88
2023-01-11T15:50:17.450Z,98513.19
2023-01-11T15:53:09.545Z,98511.47
2023-01-11T15:56:22.207Z,98512.31
2023-01-11T15:59:13.955Z,98512.34
2023-01-11T16:02:11.248Z,98509.81
2023-01-11T16:05:02.103Z,98516.75
2023-01-11T16:07:40.776Z,98513.38
2023-01-11T16:10:16.323Z,98510.94
2023-01-11T16:13:03.799Z,98514.34
2023-01-11T16:15:58.336Z,98514.25
2023-01-11T16:18:29.913Z,98502.28
2023-01-11T16:21:08.129Z,98506.66
2023-01-11T16:23:35.343Z,98526.34
2023-01-11T16:26:05.228Z,98524.69
2023-01-11T16:28:31.900Z,98521.28
2023-01-11T16:31:04.610Z,98529.00
2023-01-11T16:33:35.166Z,98526.38
2023-01-11T16:36:07.740Z,98526.41
2023-01-11T16:39:00.444Z,98526.38
2023-01-11T16:41:32.403Z,98529.00
2023-01-11T16:44:09.245Z,98529.03
2023-01-11T16:47:03.812Z,98527.19
2023-01-11T16:49:31.244Z,98525.47
2023-01-11T16:51:59.940Z,98531.47
2023-01-11T16:54:30.866Z,98535.84
2023-01-11T16:56:58.898Z,98539.22
2023-01-11T16:59:34.009Z,98544.41
2023-01-11T17:02:05.874Z,98553.78
2023-01-11T17:04:34.215Z,98550.31
2023-01-11T17:07:14.635Z,98553.84
2023-01-11T17:09:43.717Z,98548.75
2023-01-11T17:12:17.661Z,98550.53
2023-01-11T17:15:11.576Z,98548.81
2023-01-11T17:17:41.368Z,98533.56
2023-01-11T17:20:20.943Z,98541.28
2023-01-11T17:22:54.233Z,98544.81
2023-01-11T17:25:29.537Z,98545.66
2023-01-11T17:28:02.919Z,98544.69
2023-01-11T17:30:30.509Z,98547.19
2023-01-11T17:33:01.755Z,98542.03
2023-01-11T17:35:29.411Z,98544.63
2023-01-11T17:37:59.512Z,98539.59
2023-01-11T17:40:31.922Z,98544.81
2023-01-11T17:43:28.611Z,98540.59
2023-01-11T17:45:58.298Z,98536.34
2023-01-11T17:48:27.303Z,98525.28
2023-01-11T17:50:58.079Z,98526.19
2023-01-11T17:53:28.528Z,98527.06
2023-01-11T17:55:59.115Z,98526.22
2023-01-11T17:58:30.430Z,98533.13
2023-01-11T18:01:08.903Z,98528.00
2023-01-11T18:03:58.652Z,98522.91
2023-01-11T18:06:36.055Z,98520.34
2023-01-11T18:09:08.040Z,98522.09
2023-01-11T18:11:41.628Z,98520.41
2023-01-11T18:14:18.574Z,98527.28
2023-01-11T18:17:07.876Z,98531.56
2023-01-11T18:19:42.708Z,98541.81
2023-01-11T18:22:53.646Z,98547.84
2023-01-11T18:25:28.697Z,98551.25
2023-01-11T18:28:26.935Z,98556.38
2023-01-11T18:30:58.029Z,98567.56
2023-01-11T18:33:28.388Z,98565.00
2023-01-11T18:35:58.411Z,98555.53
2023-01-11T18:38:28.983Z,98544.38
2023-01-11T18:40:57.296Z,98550.34
2023-01-11T18:43:30.187Z,98551.22
2023-01-11T18:45:57.056Z,98557.25
2023-01-11T18:48:23.981Z,98560.69
2023-01-11T18:50:52.327Z,98565.84
2023-01-11T18:53:19.017Z,98569.25
2023-01-11T18:55:46.056Z,98571.81
2023-01-11T18:58:12.738Z,98564.97
2023-01-11T19:00:41.091Z,98564.13
2023-01-11T19:03:10.350Z,98564.97
2023-01-11T19:05:36.916Z,98559.81
2023-01-11T19:08:03.497Z,98554.66
2023-01-11T19:10:30.024Z,98563.19
2023-01-11T19:12:57.432Z,98557.22
2023-01-11T19:15:24.158Z,98558.06
2023-01-11T19:17:50.887Z,98565.75
2023-01-11T19:20:17.651Z,98565.69
2023-01-11T19:22:44.231Z,98564.81
2023-01-11T19:25:11.039Z,98563.97
2023-01-11T19:27:38.186Z,98575.94
2023-01-11T19:30:06.363Z,98575.03
2023-01-11T19:32:33.013Z,98581.00
2023-01-11T19:35:01.104Z,98571.59
2023-01-11T19:37:28.259Z,98575.81
2023-01-11T19:39:54.758Z,98575.00
2023-01-11T19:45:37.204Z,98580.97
2023-01-11T19:48:05.192Z,98592.91
2023-01-11T19:50:31.926Z,98591.19
2023-01-11T19:52:58.690Z,98594.59
2023-01-11T19:55:25.282Z,98601.44
2023-01-11T19:57:51.981Z,98599.72
2023-01-11T20:00:20.611Z,98609.13
2023-01-11T20:02:47.247Z,98603.06
2023-01-11T20:05:14.290Z,98600.47
2023-01-11T20:07:40.858Z,98607.31
2023-01-11T20:10:07.827Z,98608.03
2023-01-11T20:12:34.337Z,98602.81
2023-01-11T20:15:01.360Z,98604.50
2023-01-11T20:17:28.743Z,98601.91
2023-01-11T20:19:55.451Z,98601.97
2023-01-11T20:22:25.449Z,98591.00
2023-01-11T20:24:52.091Z,98591.00
2023-01-11T20:27:18.754Z,98597.88
2023-01-11T20:29:45.787Z,98596.13
2023-01-11T20:32:35.050Z,98591.91
2023-01-11T20:34:59.017Z,98592.78
2023-01-11T20:37:25.661Z,98597.13
2023-01-11T20:39:52.326Z,98598.84
2023-01-11T20:42:18.883Z,98590.38
2023-01-11T20:44:45.471Z,98589.53
2023-01-11T20:47:11.978Z,98587.75
2023-01-11T20:49:38.554Z,98594.59
2023-01-11T20:52:05.340Z,98592.84
2023-01-11T20:54:31.919Z,98601.41
2023-01-11T20:57:02.211Z,98608.16
2023-01-11T20:59:28.702Z,98597.81
2023-01-11T21:01:55.392Z,98598.66
2023-01-11T21:04:22.024Z,98597.75
2023-01-11T21:06:48.900Z,98598.69
2023-01-11T21:09:17.628Z,98599.53
2023-01-11T21:11:44.571Z,98602.13
2023-01-11T21:14:14.081Z,98602.00
2023-01-11T21:16:42.136Z,98598.59
2023-01-11T21:19:11.882Z,98611.44
2023-01-11T21:21:38.543Z,98609.69
2023-01-11T21:24:05.540Z,98606.34
2023-01-11T21:26:33.305Z,98604.56
2023-01-11T21:29:02.303Z,98605.41
2023-01-11T21:31:31.558Z,98606.25
2023-01-11T21:33:59.106Z,98609.59
2023-01-11T21:36:27.248Z,98614.72
2023-01-11T21:38:54.891Z,98613.16
2023-01-11T21:41:44.150Z,98614.72
2023-01-11T21:44:13.092Z,98616.59
2023-01-11T21:46:40.319Z,98618.25
2023-01-11T21:49:08.559Z,98622.63
2023-01-11T21:51:35.457Z,98621.75
2023-01-11T21:54:07.387Z,98620.91
2023-01-11T21:56:34.509Z,98637.22
2023-01-11T21:59:01.442Z,98628.72
2023-01-11T22:01:28.866Z,98639.00
2023-01-11T22:03:55.904Z,98637.28
2023-01-11T22:06:22.865Z,98644.97
2023-01-11T22:08:49.512Z,98646.69
2023-01-11T22:11:17.457Z,98650.09
2023-01-11T22:13:44.523Z,98657.78
2023-01-11T22:16:14.364Z,98651.81
2023-01-11T22:18:41.390Z,98658.69
2023-01-11T22:21:11.226Z,98661.25
2023-01-11T22:23:39.065Z,98652.63
2023-01-11T22:26:07.506Z,98661.22
2023-01-11T22:28:54.021Z,98668.94
2023-01-11T22:31:21.256Z,98674.06
2023-01-11T22:33:48.358Z,98680.91
2023-01-11T22:36:15.369Z,98684.28
2023-01-11T22:38:42.126Z,98676.56
2023-01-11T22:41:09.399Z,98676.56
2023-01-11T22:43:36.019Z,98674.88
2023-01-11T22:46:02.768Z,98679.16
2023-01-11T22:48:31.527Z,98680.00
2023-01-11T22:50:58.632Z,98683.44
2023-01-11T22:53:25.211Z,98676.63
2023-01-11T22:55:51.805Z,98676.66
2023-01-11T22:58:18.270Z,98680.03
2023-01-11T23:00:44.915Z,98681.69
2023-01-11T23:03:11.575Z,98692.03
2023-01-11T23:05:44.530Z,98696.31
2023-01-11T23:08:11.056Z,98702.31
2023-01-11T23:10:37.576Z,98699.78
2023-01-11T23:13:22.863Z,98698.88
2023-01-11T23:15:55.798Z,98701.44
2023-01-11T23:18:22.695Z,98699.78
2023-01-11T23:20:49.238Z,98696.38
2023-01-11T23:23:15.750Z,98694.69
2023-01-11T23:25:42.495Z,98693.84
2023-01-11T23:28:09.020Z,98694.75
2023-01-11T23:30:37.177Z,98690.50
2023-01-11T23:33:03.805Z,98690.53
2023-01-11T23:35:30.346Z,98694.81
2023-01-11T23:37:56.889Z,98699.13
2023-01-11T23:40:23.941Z,98697.44
2023-01-11T23:42:50.482Z,98687.19
2023-01-11T23:45:16.961Z,98685.47
2023-01-11T23:47:43.588Z,98685.50
2023-01-11T23:50:10.455Z,98681.22
2023-01-11T23:52:37.000Z,98686.38
2023-01-11T23:55:03.729Z,98688.97
2023-01-11T23:57:31.263Z,98690.69
2023-01-11T23:59:57.880Z,98694.97
